AFL508 LLBG-UUEE
Flight info
| Callsign | AFL508 |
|---|---|
| Flight time | N/A |
| Altitude | 32000 |
| Route | DAFNA W13 VELOX R18 DESPO N71 ALSUS L620 VESAR UB545 EVKIT/N0466F330 UT284 SIV/N0467F340 UT888 CRM/N0464F330 UG901 BALUM/K0859F330 G901 DIGRA/K0861F350 G901 INDIM/K0857F340 G901 LEKPI L91 NZ W79 AMEPU A100 KL L91 KANON T748 PEPOR T611 TUKMO N50 OLOPI |
| Aircraft | B738/M-SDE2E3FGHIRWXY/LB1 |
Departure
| Time | N/A |
|---|---|
| Airport | Ben Gurion International Airport (LLBG) |
Arrival
| Time | 2026-05-07 15:48 |
|---|---|
| Airport | Sheremetyevo International Airport (UUEE) |
| Time | Latitude | Longitude | Altitude | Speed | Heading |
|---|---|---|---|---|---|
| 2026-05-07 15:17 | 54.45341 | 38.71038 | 28203 ft | 414 kts | 332° |
| 2026-05-07 15:17 | 54.47935 | 38.68811 | 27316 ft | 418 kts | 332° |
| 2026-05-07 15:17 | 54.50549 | 38.66561 | 26499 ft | 419 kts | 332° |
| 2026-05-07 15:17 | 54.53113 | 38.64350 | 26204 ft | 408 kts | 332° |
| 2026-05-07 15:18 | 54.55642 | 38.62168 | 26002 ft | 395 kts | 332° |
| 2026-05-07 15:18 | 54.58041 | 38.60096 | 25988 ft | 381 kts | 332° |
| 2026-05-07 15:18 | 54.60392 | 38.58058 | 25988 ft | 382 kts | 332° |
| 2026-05-07 15:18 | 54.62757 | 38.56002 | 25987 ft | 385 kts | 332° |
| 2026-05-07 15:19 | 54.65148 | 38.53921 | 25988 ft | 384 kts | 332° |
| 2026-05-07 15:19 | 54.67527 | 38.51849 | 25987 ft | 384 kts | 332° |
| 2026-05-07 15:19 | 54.69918 | 38.49765 | 25985 ft | 384 kts | 332° |
| 2026-05-07 15:19 | 54.72322 | 38.47666 | 25985 ft | 385 kts | 332° |
| 2026-05-07 15:20 | 54.74704 | 38.45588 | 25984 ft | 385 kts | 332° |
| 2026-05-07 15:20 | 54.77077 | 38.43528 | 25983 ft | 385 kts | 332° |
| 2026-05-07 15:20 | 54.79492 | 38.41435 | 25982 ft | 385 kts | 332° |
| 2026-05-07 15:20 | 54.81881 | 38.39323 | 25981 ft | 385 kts | 330° |
| 2026-05-07 15:21 | 54.84170 | 38.36978 | 25979 ft | 384 kts | 325° |
| 2026-05-07 15:21 | 54.86303 | 38.34208 | 25981 ft | 383 kts | 318° |
| 2026-05-07 15:21 | 54.88277 | 38.31100 | 25979 ft | 381 kts | 314° |
| 2026-05-07 15:21 | 54.90151 | 38.27861 | 25977 ft | 381 kts | 313° |
| 2026-05-07 15:22 | 54.91984 | 38.24566 | 25977 ft | 381 kts | 312° |
| 2026-05-07 15:22 | 54.93813 | 38.21245 | 25975 ft | 380 kts | 312° |
| 2026-05-07 15:22 | 54.95634 | 38.17941 | 25975 ft | 380 kts | 312° |
| 2026-05-07 15:22 | 54.97453 | 38.14648 | 25931 ft | 381 kts | 312° |
| 2026-05-07 15:23 | 54.99300 | 38.11306 | 25489 ft | 386 kts | 312° |
| 2026-05-07 15:23 | 55.01165 | 38.07930 | 24558 ft | 393 kts | 312° |
| 2026-05-07 15:23 | 55.03081 | 38.04462 | 23625 ft | 398 kts | 312° |
| 2026-05-07 15:23 | 55.04971 | 38.01049 | 23180 ft | 391 kts | 311° |
| 2026-05-07 15:24 | 55.06848 | 37.97660 | 22715 ft | 385 kts | 311° |
| 2026-05-07 15:24 | 55.08710 | 37.94293 | 22197 ft | 380 kts | 311° |
| 2026-05-07 15:24 | 55.10511 | 37.91029 | 21675 ft | 377 kts | 311° |
| 2026-05-07 15:24 | 55.12326 | 37.87737 | 21136 ft | 373 kts | 311° |
| 2026-05-07 15:25 | 55.14100 | 37.84516 | 20626 ft | 363 kts | 311° |
| 2026-05-07 15:25 | 55.15841 | 37.81417 | 20102 ft | 354 kts | 313° |
| 2026-05-07 15:25 | 55.17644 | 37.78639 | 19889 ft | 346 kts | 317° |
| 2026-05-07 15:25 | 55.19559 | 37.76054 | 19899 ft | 349 kts | 320° |
| 2026-05-07 15:26 | 55.21529 | 37.73536 | 19893 ft | 351 kts | 321° |
| 2026-05-07 15:26 | 55.23493 | 37.71061 | 19873 ft | 347 kts | 321° |
| 2026-05-07 15:26 | 55.25463 | 37.68578 | 19864 ft | 346 kts | 321° |
| 2026-05-07 15:26 | 55.27385 | 37.66146 | 19899 ft | 334 kts | 321° |
| 2026-05-07 15:27 | 55.29219 | 37.63812 | 19867 ft | 322 kts | 320° |
| 2026-05-07 15:27 | 55.31011 | 37.61517 | 19891 ft | 323 kts | 320° |
| 2026-05-07 15:27 | 55.32837 | 37.59168 | 19872 ft | 325 kts | 320° |
| 2026-05-07 15:27 | 55.34653 | 37.56832 | 19863 ft | 324 kts | 320° |
| 2026-05-07 15:28 | 55.36457 | 37.54510 | 19885 ft | 325 kts | 320° |
| 2026-05-07 15:28 | 55.38293 | 37.52143 | 19887 ft | 326 kts | 320° |
| 2026-05-07 15:28 | 55.40121 | 37.49784 | 19889 ft | 324 kts | 320° |
| 2026-05-07 15:28 | 55.41927 | 37.47451 | 19815 ft | 322 kts | 320° |
| 2026-05-07 15:29 | 55.43725 | 37.45128 | 19473 ft | 319 kts | 320° |
| 2026-05-07 15:29 | 55.45369 | 37.42998 | 19105 ft | 317 kts | 320° |
| 2026-05-07 15:29 | 55.47133 | 37.40710 | 18702 ft | 314 kts | 320° |
| 2026-05-07 15:29 | 55.48906 | 37.38429 | 18276 ft | 313 kts | 321° |
| 2026-05-07 15:30 | 55.50775 | 37.36502 | 17888 ft | 316 kts | 332° |
| 2026-05-07 15:30 | 55.52915 | 37.35566 | 17489 ft | 323 kts | 351° |
| 2026-05-07 15:30 | 55.55167 | 37.35458 | 17072 ft | 325 kts | 356° |
| 2026-05-07 15:30 | 55.57433 | 37.35512 | 16648 ft | 325 kts | 356° |
| 2026-05-07 15:31 | 55.59684 | 37.35567 | 16230 ft | 325 kts | 355° |
| 2026-05-07 15:31 | 55.61931 | 37.35589 | 15816 ft | 324 kts | 355° |
| 2026-05-07 15:31 | 55.64206 | 37.35589 | 15390 ft | 325 kts | 355° |
| 2026-05-07 15:31 | 55.66440 | 37.35578 | 14972 ft | 324 kts | 355° |
| 2026-05-07 15:32 | 55.68692 | 37.35560 | 14546 ft | 324 kts | 355° |
| 2026-05-07 15:32 | 55.70972 | 37.35538 | 14116 ft | 324 kts | 355° |
| 2026-05-07 15:32 | 55.73216 | 37.35504 | 13706 ft | 323 kts | 354° |
| 2026-05-07 15:32 | 55.75439 | 37.35352 | 13285 ft | 322 kts | 352° |
| 2026-05-07 15:33 | 55.77652 | 37.35099 | 12873 ft | 321 kts | 351° |
| 2026-05-07 15:33 | 55.79895 | 37.34814 | 12450 ft | 321 kts | 349° |
| 2026-05-07 15:33 | 55.82080 | 37.34553 | 12036 ft | 322 kts | 351° |
| 2026-05-07 15:33 | 55.84286 | 37.34613 | 11846 ft | 317 kts | 358° |
| 2026-05-07 15:34 | 55.86472 | 37.34989 | 11600 ft | 314 kts | 1° |
| 2026-05-07 15:34 | 55.88626 | 37.35470 | 11219 ft | 314 kts | 1° |
| 2026-05-07 15:34 | 55.90791 | 37.35966 | 10815 ft | 315 kts | 1° |
| 2026-05-07 15:34 | 55.92966 | 37.36446 | 10407 ft | 316 kts | 1° |
| 2026-05-07 15:35 | 55.95152 | 37.36800 | 10000 ft | 313 kts | 354° |
| 2026-05-07 15:35 | 55.97222 | 37.36385 | 9877 ft | 286 kts | 334° |
| 2026-05-07 15:35 | 55.98889 | 37.34744 | 9890 ft | 266 kts | 316° |
| 2026-05-07 15:35 | 56.00310 | 37.32676 | 9879 ft | 265 kts | 313° |
| 2026-05-07 15:36 | 56.01699 | 37.30606 | 9773 ft | 258 kts | 314° |
| 2026-05-07 15:36 | 56.03108 | 37.28597 | 9463 ft | 258 kts | 315° |
| 2026-05-07 15:36 | 56.04517 | 37.26648 | 9143 ft | 258 kts | 315° |
| 2026-05-07 15:36 | 56.05936 | 37.24706 | 8820 ft | 257 kts | 316° |
| 2026-05-07 15:37 | 56.07459 | 37.22980 | 8504 ft | 262 kts | 329° |
| 2026-05-07 15:37 | 56.09262 | 37.22337 | 8203 ft | 277 kts | 356° |
| 2026-05-07 15:37 | 56.11156 | 37.23265 | 7854 ft | 291 kts | 23° |
| 2026-05-07 15:37 | 56.12822 | 37.25463 | 7436 ft | 299 kts | 43° |
| 2026-05-07 15:38 | 56.14115 | 37.28359 | 7105 ft | 300 kts | 53° |
| 2026-05-07 15:38 | 56.15260 | 37.31459 | 6939 ft | 291 kts | 55° |
| 2026-05-07 15:38 | 56.16125 | 37.34622 | 6884 ft | 281 kts | 71° |
| 2026-05-07 15:38 | 56.16652 | 37.37917 | 6824 ft | 274 kts | 75° |
| 2026-05-07 15:39 | 56.17138 | 37.41242 | 6504 ft | 277 kts | 75° |
| 2026-05-07 15:39 | 56.17630 | 37.44601 | 6176 ft | 278 kts | 75° |
| 2026-05-07 15:39 | 56.18125 | 37.47945 | 5828 ft | 278 kts | 75° |
| 2026-05-07 15:39 | 56.18626 | 37.51288 | 5532 ft | 275 kts | 74° |
| 2026-05-07 15:40 | 56.19101 | 37.54571 | 5215 ft | 271 kts | 78° |
| 2026-05-07 15:40 | 56.19275 | 37.57877 | 4937 ft | 264 kts | 98° |
| 2026-05-07 15:40 | 56.18641 | 37.60824 | 4890 ft | 250 kts | 131° |
| 2026-05-07 15:40 | 56.17455 | 37.63084 | 4888 ft | 249 kts | 140° |
| 2026-05-07 15:41 | 56.16213 | 37.65202 | 4771 ft | 250 kts | 141° |
| 2026-05-07 15:41 | 56.14972 | 37.67379 | 4535 ft | 248 kts | 139° |
| 2026-05-07 15:41 | 56.13763 | 37.69586 | 4305 ft | 245 kts | 139° |
| 2026-05-07 15:41 | 56.12589 | 37.71756 | 4185 ft | 237 kts | 138° |
| 2026-05-07 15:42 | 56.11473 | 37.73824 | 4140 ft | 224 kts | 138° |
| 2026-05-07 15:42 | 56.10389 | 37.75751 | 4076 ft | 220 kts | 144° |
| 2026-05-07 15:42 | 56.09107 | 37.77064 | 3995 ft | 206 kts | 172° |
| 2026-05-07 15:42 | 56.07784 | 37.76910 | 3997 ft | 182 kts | 203° |
| 2026-05-07 15:43 | 56.06598 | 37.76105 | 3998 ft | 181 kts | 204° |
| 2026-05-07 15:43 | 56.05465 | 37.75420 | 3994 ft | 167 kts | 202° |
| 2026-05-07 15:43 | 56.04385 | 37.74793 | 4002 ft | 160 kts | 203° |
| 2026-05-07 15:43 | 56.03327 | 37.74148 | 3995 ft | 161 kts | 204° |
| 2026-05-07 15:44 | 56.02353 | 37.73229 | 3993 ft | 155 kts | 227° |
| 2026-05-07 15:44 | 56.01830 | 37.71600 | 4016 ft | 154 kts | 254° |
| 2026-05-07 15:44 | 56.01586 | 37.69757 | 3967 ft | 153 kts | 256° |
| 2026-05-07 15:44 | 56.01314 | 37.67899 | 3821 ft | 152 kts | 255° |
| 2026-05-07 15:45 | 56.01045 | 37.66095 | 3593 ft | 151 kts | 255° |
| 2026-05-07 15:45 | 56.00781 | 37.64294 | 3318 ft | 148 kts | 255° |
| 2026-05-07 15:45 | 56.00524 | 37.62545 | 3047 ft | 143 kts | 255° |
| 2026-05-07 15:45 | 56.00275 | 37.60857 | 2796 ft | 143 kts | 256° |
| 2026-05-07 15:46 | 55.99777 | 37.57407 | 2158 ft | 142 kts | 256° |
| 2026-05-07 15:46 | 55.99530 | 37.55702 | 1950 ft | 143 kts | 256° |
| 2026-05-07 15:46 | 55.99247 | 37.53982 | 1759 ft | 144 kts | 256° |
| 2026-05-07 15:47 | 55.99011 | 37.52285 | 1595 ft | 142 kts | 260° |
| 2026-05-07 15:47 | 55.98741 | 37.50559 | 1382 ft | 146 kts | 256° |
| 2026-05-07 15:47 | 55.98478 | 37.48815 | 1204 ft | 145 kts | 257° |
| 2026-05-07 15:47 | 55.98229 | 37.47041 | 1002 ft | 150 kts | 257° |
| 2026-05-07 15:48 | 55.97957 | 37.45251 | 807 ft | 151 kts | 258° |
| 2026-05-07 15:48 | 55.97695 | 37.43430 | 644 ft | 147 kts | 257° |
| 2026-05-07 15:48 | 55.97466 | 37.41908 | 637 ft | 98 kts | 255° |
| 2026-05-07 15:48 | 55.97340 | 37.41067 | 637 ft | 46 kts | 256° |
| 2026-05-07 15:49 | 55.97344 | 37.40648 | 637 ft | 30 kts | 286° |
| 2026-05-07 15:49 | 55.97381 | 37.40416 | 637 ft | 9 kts | 286° |
| 2026-05-07 15:49 | 55.97385 | 37.40389 | 637 ft | 0 kts | 286° |
| 2026-05-07 15:50 | 55.97389 | 37.40364 | 637 ft | 5 kts | 286° |
| 2026-05-07 15:50 | 55.97394 | 37.40246 | 637 ft | 13 kts | 258° |
| 2026-05-07 15:51 | 55.97366 | 37.40054 | 637 ft | 17 kts | 256° |
| 2026-05-07 15:51 | 55.97362 | 37.39876 | 637 ft | 12 kts | 324° |
| 2026-05-07 15:51 | 55.97447 | 37.39849 | 637 ft | 12 kts | 25° |
| 2026-05-07 15:51 | 55.97480 | 37.39984 | 637 ft | 13 kts | 76° |
| 2026-05-07 15:52 | 55.97507 | 37.40157 | 637 ft | 15 kts | 75° |
| 2026-05-07 15:52 | 55.97536 | 37.40358 | 637 ft | 16 kts | 76° |
| 2026-05-07 15:52 | 55.97567 | 37.40554 | 637 ft | 16 kts | 74° |
| 2026-05-07 15:52 | 55.97595 | 37.40747 | 637 ft | 15 kts | 76° |
| 2026-05-07 15:53 | 55.97627 | 37.40930 | 637 ft | 14 kts | 51° |
| 2026-05-07 15:53 | 55.97708 | 37.40934 | 637 ft | 11 kts | 346° |
| 2026-05-07 15:53 | 55.97786 | 37.40897 | 637 ft | 11 kts | 345° |
| 2026-05-07 15:53 | 55.97860 | 37.40861 | 637 ft | 10 kts | 345° |
| 2026-05-07 15:54 | 55.97894 | 37.40901 | 637 ft | 3 kts | 79° |
| 2026-05-07 15:54 | 55.97899 | 37.40933 | 637 ft | 2 kts | 76° |
| 2026-05-07 15:54 | 55.97901 | 37.40951 | 637 ft | 0 kts | 75° |